Thunder radar more information blitzortung!


Radar de pluja more information rain snow radar


Visita la nostra xarxa de llocs de meteo:

Template documentation
and downloads

And another site



No particular awareness of the weather is required.    There are no Weather-warnings

Pagina Historial Weather Underground text

Diari Resum Juliol 5, 2017 Unitats:  Tant    Imperial   Mètric
« Previous Dia
SegĂźent Dia »
Diari Setmana Mensual Anual Personalitzada
  Maxima: Minima: Media:
Temperatura: TemperatureC °F /  -17.8 °C 16.1 °F /  -8.8 °C 24.9 °F /  -3.9 °C
Punt de rosada: DewpointC °F /  -17.8 °C 10.4 °F /  -12 °C 14.2 °F /  -9.9 °C
Humitat: Humidity % 33 % 53 %
Wind Speed: WindSpeedKMH mph /  0 km/h - 8.7 mph /  14 km/h
RĂ fegues de vent: WindSpeedGustKMH mph /  0 km/h - -
Vent:- - ESE
Pression baro: PressurehPa in /  0 hPa 1012.8 in /  34293.4 hPa -
Precipitacions: 0.0 in /  0 mm    
Historical Graphs
 
 
Dades de taula per Juliol 5, 2017
Temps Temperatura Punt de rosada Pression baro Vent Wind Speed RĂ fegues de vent Humitat Rainfall Rate (Hourly)
TemperatureC °F /  -17.8 °C DewpointC °F /  -17.8 °C PressurehPa in /  0 hPa Calm     Humidity % HourlyPrecipMM in /  0 mm
00:04 21.5 °F /  -5.8 °C 11.5 °F /  -11.4 °C 1015.8 in /  34395 hPa Calm     53 % 0.0 in /  0 mm
00:05 16.5 °F /  -8.6 °C 10.8 °F /  -11.8 °C 1015.8 in /  34395 hPa Calm     69 % 0.0 in /  0 mm
00:09 21.3 °F /  -5.9 °C 11.3 °F /  -11.5 °C 1015.8 in /  34395 hPa Calm     53 % 0.0 in /  0 mm
00:15 16.6 °F /  -8.6 °C 10.9 °F /  -11.7 °C 1016.8 in /  34428.8 hPa Calm   1.6 mph /  2.6 km/h 69 % 0.0 in /  0 mm
00:25 16.6 °F /  -8.6 °C 10.9 °F /  -11.7 °C 1016.8 in /  34428.8 hPa Calm   1.6 mph /  2.6 km/h 69 % 0.0 in /  0 mm
00:35 16.5 °F /  -8.6 °C 10.8 °F /  -11.8 °C 1015.8 in /  34395 hPa Calm     69 % 0.0 in /  0 mm
00:45 16.4 °F /  -8.7 °C 10.7 °F /  -11.8 °C 1015.8 in /  34395 hPa Calm     69 % 0.0 in /  0 mm
00:55 16.3 °F /  -8.7 °C 10.6 °F /  -11.9 °C 1015.8 in /  34395 hPa Calm     69 % 0.0 in /  0 mm
01:05 16.1 °F /  -8.8 °C 10.4 °F /  -12 °C 1015.8 in /  34395 hPa Calm     69 % 0.0 in /  0 mm
01:15 16.2 °F /  -8.8 °C 10.7 °F /  -11.8 °C 1015.8 in /  34395 hPa Calm     70 % 0.0 in /  0 mm
01:25 16.2 °F /  -8.8 °C 10.7 °F /  -11.8 °C 1015.8 in /  34395 hPa Calm     70 % 0.0 in /  0 mm
01:35 16.4 °F /  -8.7 °C 10.9 °F /  -11.7 °C 1015.8 in /  34395 hPa Calm   3.2 mph /  5.1 km/h 70 % 0.0 in /  0 mm
01:45 16.5 °F /  -8.6 °C 11.0 °F /  -11.7 °C 1015.8 in /  34395 hPa Calm   3.2 mph /  5.1 km/h 70 % 0.0 in /  0 mm
01:55 16.6 °F /  -8.6 °C 10.9 °F /  -11.7 °C 1015.8 in /  34395 hPa Calm     69 % 0.0 in /  0 mm
02:05 16.8 °F /  -8.4 °C 11.1 °F /  -11.6 °C 1015.8 in /  34395 hPa NE 1.6 mph /  2.6 km/h 1.6 mph /  2.6 km/h 69 % 0.0 in /  0 mm
02:15 17.0 °F /  -8.3 °C 11.1 °F /  -11.6 °C 1015.8 in /  34395 hPa Calm   1.6 mph /  2.6 km/h 68 % 0.0 in /  0 mm
02:25 17.5 °F /  -8.1 °C 11.1 °F /  -11.6 °C 1015.8 in /  34395 hPa ENE 3.2 mph /  5.1 km/h 4.8 mph /  7.7 km/h 66 % 0.0 in /  0 mm
02:35 16.7 °F /  -8.5 °C 10.8 °F /  -11.8 °C 1015.8 in /  34395 hPa SW 3.2 mph /  5.1 km/h 4.8 mph /  7.7 km/h 68 % 0.0 in /  0 mm
02:45 16.8 °F /  -8.4 °C 10.8 °F /  -11.8 °C 1015.8 in /  34395 hPa SW 1.6 mph /  2.6 km/h 3.2 mph /  5.1 km/h 68 % 0.0 in /  0 mm
02:55 17.7 °F /  -7.9 °C 11.5 °F /  -11.4 °C 1015.8 in /  34395 hPa Calm   3.2 mph /  5.1 km/h 67 % 0.0 in /  0 mm
03:05 19.0 °F /  -7.2 °C 12.1 °F /  -11.1 °C 1015.8 in /  34395 hPa South 1.6 mph /  2.6 km/h 3.2 mph /  5.1 km/h 64 % 0.0 in /  0 mm
03:15 18.8 °F /  -7.3 °C 11.8 °F /  -11.2 °C 1015.8 in /  34395 hPa Calm   3.2 mph /  5.1 km/h 64 % 0.0 in /  0 mm
03:25 19.2 °F /  -7.1 °C 11.7 °F /  -11.3 °C 1015.8 in /  34395 hPa SSW 3.2 mph /  5.1 km/h 3.2 mph /  5.1 km/h 62 % 0.0 in /  0 mm
03:35 19.0 °F /  -7.2 °C 11.3 °F /  -11.5 °C 1015.8 in /  34395 hPa SW 1.6 mph /  2.6 km/h 4.8 mph /  7.7 km/h 61 % 0.0 in /  0 mm
03:45 19.4 °F /  -7 °C 11.7 °F /  -11.3 °C 1015.8 in /  34395 hPa SW 3.2 mph /  5.1 km/h 3.2 mph /  5.1 km/h 61 % 0.0 in /  0 mm
03:55 20.2 °F /  -6.6 °C 11.9 °F /  -11.2 °C 1015.8 in /  34395 hPa SW 1.6 mph /  2.6 km/h 3.2 mph /  5.1 km/h 59 % 0.0 in /  0 mm
04:05 21.8 °F /  -5.7 °C 12.9 °F /  -10.6 °C 1015.8 in /  34395 hPa SW 1.6 mph /  2.6 km/h 3.2 mph /  5.1 km/h 57 % 0.0 in /  0 mm
04:15 23.0 °F /  -5 °C 13.2 °F /  -10.4 °C 1014.8 in /  34361.1 hPa WNW 1.6 mph /  2.6 km/h 3.2 mph /  5.1 km/h 54 % 0.0 in /  0 mm
04:25 22.9 °F /  -5.1 °C 12.8 °F /  -10.7 °C 1014.8 in /  34361.1 hPa NNE 3.2 mph /  5.1 km/h 3.2 mph /  5.1 km/h 53 % 0.0 in /  0 mm
04:35 23.8 °F /  -4.6 °C 13.3 °F /  -10.4 °C 1015.8 in /  34395 hPa NNE 1.6 mph /  2.6 km/h 4.8 mph /  7.7 km/h 52 % 0.0 in /  0 mm
04:45 24.0 °F /  -4.4 °C 12.9 °F /  -10.6 °C 1015.8 in /  34395 hPa NE 3.2 mph /  5.1 km/h 4.8 mph /  7.7 km/h 50 % 0.0 in /  0 mm
04:55 24.4 °F /  -4.2 °C 13.3 °F /  -10.4 °C 1015.8 in /  34395 hPa ENE 1.6 mph /  2.6 km/h 4.8 mph /  7.7 km/h 50 % 0.0 in /  0 mm
05:05 24.5 °F /  -4.2 °C 13.1 °F /  -10.5 °C 1014.8 in /  34361.1 hPa NE 3.2 mph /  5.1 km/h 4.8 mph /  7.7 km/h 49 % 0.0 in /  0 mm
05:15 25.4 °F /  -3.7 °C 13.3 °F /  -10.4 °C 1015.8 in /  34395 hPa NE 1.6 mph /  2.6 km/h 3.2 mph /  5.1 km/h 47 % 0.0 in /  0 mm
05:25 25.7 °F /  -3.5 °C 13.6 °F /  -10.2 °C 1015.8 in /  34395 hPa NNE 1.6 mph /  2.6 km/h 3.2 mph /  5.1 km/h 47 % 0.0 in /  0 mm
05:35 25.8 °F /  -3.4 °C 12.9 °F /  -10.6 °C 1014.8 in /  34361.1 hPa SE 3.2 mph /  5.1 km/h 6.4 mph /  10.3 km/h 45 % 0.0 in /  0 mm
05:45 26.2 °F /  -3.2 °C 12.6 °F /  -10.8 °C 1015.8 in /  34395 hPa SE 1.6 mph /  2.6 km/h 4.8 mph /  7.7 km/h 43 % 0.0 in /  0 mm
05:55 26.4 °F /  -3.1 °C 12.8 °F /  -10.7 °C 1015.8 in /  34395 hPa ESE 4.8 mph /  7.7 km/h 8.0 mph /  12.9 km/h 43 % 0.0 in /  0 mm
06:05 27.5 °F /  -2.5 °C 13.1 °F /  -10.5 °C 1014.8 in /  34361.1 hPa ESE 1.6 mph /  2.6 km/h 4.8 mph /  7.7 km/h 41 % 0.0 in /  0 mm
06:15 28.1 °F /  -2.2 °C 13.2 °F /  -10.4 °C 1015.8 in /  34395 hPa SSE 1.6 mph /  2.6 km/h 4.8 mph /  7.7 km/h 40 % 0.0 in /  0 mm
11:15 28.1 °F /  -2.2 °C 13.6 °F /  -10.2 °C 1015.8 in /  34395 hPa SE 6.1 mph /  9.8 km/h 6.1 mph /  9.8 km/h 41 % 0.0 in /  0 mm
11:20 27.7 °F /  -2.4 °C 12.9 °F /  -10.6 °C 1015.8 in /  34395 hPa SSE 5.6 mph /  9 km/h 5.6 mph /  9 km/h 40 % 0.0 in /  0 mm
11:25 28.1 °F /  -2.2 °C 13.2 °F /  -10.4 °C 1014.8 in /  34361.1 hPa WNW 3.7 mph /  6 km/h 3.7 mph /  6 km/h 40 % 0.0 in /  0 mm
11:30 28.2 °F /  -2.1 °C 12.9 °F /  -10.6 °C 1014.8 in /  34361.1 hPa SSE 5.6 mph /  9 km/h 5.6 mph /  9 km/h 39 % 0.0 in /  0 mm
11:35 27.9 °F /  -2.3 °C 12.7 °F /  -10.7 °C 1014.8 in /  34361.1 hPa NE 7.4 mph /  11.9 km/h 7.4 mph /  11.9 km/h 39 % 0.0 in /  0 mm
11:40 28.2 °F /  -2.1 °C 12.1 °F /  -11.1 °C 1015.8 in /  34395 hPa East 7.4 mph /  11.9 km/h 7.4 mph /  11.9 km/h 37 % 0.0 in /  0 mm
11:45 28.3 °F /  -2.1 °C 12.6 °F /  -10.8 °C 1015.8 in /  34395 hPa SW 7.4 mph /  11.9 km/h 7.4 mph /  11.9 km/h 38 % 0.0 in /  0 mm
11:50 28.9 °F /  -1.7 °C 12.3 °F /  -10.9 °C 1015.8 in /  34395 hPa SE 7.4 mph /  11.9 km/h 7.4 mph /  11.9 km/h 36 % 0.0 in /  0 mm
11:55 28.8 °F /  -1.8 °C 12.7 °F /  -10.7 °C 1014.8 in /  34361.1 hPa ESE 3.7 mph /  6 km/h 3.9 mph /  6.3 km/h 37 % 0.0 in /  0 mm
12:00 29.3 °F /  -1.5 °C 12.3 °F /  -10.9 °C 1014.8 in /  34361.1 hPa ESE 5.6 mph /  9 km/h 5.6 mph /  9 km/h 35 % 0.0 in /  0 mm
12:05 29.2 °F /  -1.6 °C 12.2 °F /  -11 °C 1014.8 in /  34361.1 hPa East 7.4 mph /  11.9 km/h 7.4 mph /  11.9 km/h 35 % 0.0 in /  0 mm
12:10 29.0 °F /  -1.7 °C 11.6 °F /  -11.3 °C 1015.8 in /  34395 hPa NNE 9.3 mph /  15 km/h 9.3 mph /  15 km/h 34 % 0.0 in /  0 mm
12:15 29.2 °F /  -1.6 °C 11.7 °F /  -11.3 °C 1015.8 in /  34395 hPa ESE 9.3 mph /  15 km/h 9.3 mph /  15 km/h 34 % 0.0 in /  0 mm
12:20 28.8 °F /  -1.8 °C 11.8 °F /  -11.2 °C 1015.8 in /  34395 hPa NE 7.4 mph /  11.9 km/h 7.4 mph /  11.9 km/h 35 % 0.0 in /  0 mm
12:25 28.8 °F /  -1.8 °C 11.4 °F /  -11.4 °C 1016.8 in /  34428.8 hPa WSW 13.0 mph /  20.9 km/h 13.0 mph /  20.9 km/h 34 % 0.0 in /  0 mm
12:30 29.1 °F /  -1.6 °C 11.2 °F /  -11.6 °C 1016.8 in /  34428.8 hPa ENE 7.4 mph /  11.9 km/h 7.4 mph /  11.9 km/h 33 % 0.0 in /  0 mm
12:35 29.6 °F /  -1.3 °C 12.1 °F /  -11.1 °C 1016.8 in /  34428.8 hPa North 3.7 mph /  6 km/h 3.7 mph /  6 km/h 34 % 0.0 in /  0 mm
12:40 30.2 °F /  -1 °C 12.2 °F /  -11 °C 1015.8 in /  34395 hPa ENE 6.4 mph /  10.3 km/h 6.4 mph /  10.3 km/h 33 % 0.0 in /  0 mm
12:45 29.8 °F /  -1.2 °C 12.2 °F /  -11 °C 1015.8 in /  34395 hPa ESE 9.3 mph /  15 km/h 9.3 mph /  15 km/h 34 % 0.0 in /  0 mm
12:50 29.3 °F /  -1.5 °C 12.7 °F /  -10.7 °C 1015.8 in /  34395 hPa NE 13.0 mph /  20.9 km/h 13.0 mph /  20.9 km/h 36 % 0.0 in /  0 mm
12:55 29.3 °F /  -1.5 °C 13.5 °F /  -10.3 °C 1015.8 in /  34395 hPa ENE 18.5 mph /  29.8 km/h 18.5 mph /  29.8 km/h 38 % 0.0 in /  0 mm
13:00 29.0 °F /  -1.7 °C 13.7 °F /  -10.2 °C 1015.8 in /  34395 hPa ENE 11.1 mph /  17.9 km/h 11.1 mph /  17.9 km/h 39 % 0.0 in /  0 mm
13:01 29.1 °F /  -1.6 °C 13.7 °F /  -10.2 °C 1015.8 in /  34395 hPa ESE 11.1 mph /  17.9 km/h 11.1 mph /  17.9 km/h 39 % 0.0 in /  0 mm
13:06 28.8 °F /  -1.8 °C 14.2 °F /  -9.9 °C 1015.8 in /  34395 hPa ENE 13.0 mph /  20.9 km/h 13.0 mph /  20.9 km/h 41 % 0.0 in /  0 mm
13:11 28.9 °F /  -1.7 °C 14.3 °F /  -9.8 °C 1015.8 in /  34395 hPa SSE 19.8 mph /  31.9 km/h 19.8 mph /  31.9 km/h 41 % 0.0 in /  0 mm
13:16 28.5 °F /  -1.9 °C 14.3 °F /  -9.8 °C 1015.8 in /  34395 hPa NNE 11.1 mph /  17.9 km/h 11.1 mph /  17.9 km/h 42 % 0.0 in /  0 mm
13:21 28.7 °F /  -1.8 °C 14.9 °F /  -9.5 °C 1015.8 in /  34395 hPa ESE 16.7 mph /  26.9 km/h 16.7 mph /  26.9 km/h 43 % 0.0 in /  0 mm
13:26 29.2 °F /  -1.6 °C 14.9 °F /  -9.5 °C 1014.8 in /  34361.1 hPa East 12.6 mph /  20.3 km/h 12.6 mph /  20.3 km/h 42 % 0.0 in /  0 mm
13:31 28.9 °F /  -1.7 °C 15.1 °F /  -9.4 °C 1014.8 in /  34361.1 hPa ESE 16.7 mph /  26.9 km/h 16.7 mph /  26.9 km/h 43 % 0.0 in /  0 mm
13:36 28.9 °F /  -1.7 °C 15.1 °F /  -9.4 °C 1014.8 in /  34361.1 hPa ENE 13.0 mph /  20.9 km/h 13.0 mph /  20.9 km/h 43 % 0.0 in /  0 mm
13:41 28.8 °F /  -1.8 °C 15.0 °F /  -9.4 °C 1014.8 in /  34361.1 hPa East 13.0 mph /  20.9 km/h 13.0 mph /  20.9 km/h 43 % 0.0 in /  0 mm
13:46 28.7 °F /  -1.8 °C 14.9 °F /  -9.5 °C 1014.8 in /  34361.1 hPa NE 13.0 mph /  20.9 km/h 13.0 mph /  20.9 km/h 43 % 0.0 in /  0 mm
13:51 29.0 °F /  -1.7 °C 14.8 °F /  -9.6 °C 1014.8 in /  34361.1 hPa ESE 9.3 mph /  15 km/h 9.3 mph /  15 km/h 42 % 0.0 in /  0 mm
13:56 28.8 °F /  -1.8 °C 15.0 °F /  -9.4 °C 1014.8 in /  34361.1 hPa SE 13.0 mph /  20.9 km/h 13.0 mph /  20.9 km/h 43 % 0.0 in /  0 mm
14:01 29.0 °F /  -1.7 °C 15.2 °F /  -9.3 °C 1014.8 in /  34361.1 hPa ENE 16.7 mph /  26.9 km/h 16.7 mph /  26.9 km/h 43 % 0.0 in /  0 mm
14:06 28.8 °F /  -1.8 °C 15.3 °F /  -9.3 °C 1014.8 in /  34361.1 hPa ESE 13.7 mph /  22 km/h 13.7 mph /  22 km/h 44 % 0.0 in /  0 mm
14:11 28.6 °F /  -1.9 °C 15.2 °F /  -9.3 °C 1014.8 in /  34361.1 hPa ESE 16.7 mph /  26.9 km/h 16.7 mph /  26.9 km/h 44 % 0.0 in /  0 mm
14:16 28.8 °F /  -1.8 °C 15.0 °F /  -9.4 °C 1014.8 in /  34361.1 hPa ESE 16.7 mph /  26.9 km/h 16.7 mph /  26.9 km/h 43 % 0.0 in /  0 mm
14:21 29.0 °F /  -1.7 °C 14.8 °F /  -9.6 °C 1014.8 in /  34361.1 hPa ESE 16.7 mph /  26.9 km/h 16.7 mph /  26.9 km/h 42 % 0.0 in /  0 mm
14:26 28.8 °F /  -1.8 °C 15.0 °F /  -9.4 °C 1014.8 in /  34361.1 hPa ESE 13.0 mph /  20.9 km/h 13.0 mph /  20.9 km/h 43 % 0.0 in /  0 mm
14:31 29.0 °F /  -1.7 °C 14.8 °F /  -9.6 °C 1014.8 in /  34361.1 hPa East 18.5 mph /  29.8 km/h 18.5 mph /  29.8 km/h 42 % 0.0 in /  0 mm
14:36 29.2 °F /  -1.6 °C 14.9 °F /  -9.5 °C 1014.8 in /  34361.1 hPa East 22.2 mph /  35.7 km/h 22.2 mph /  35.7 km/h 42 % 0.0 in /  0 mm
14:41 28.9 °F /  -1.7 °C 15.1 °F /  -9.4 °C 1014.8 in /  34361.1 hPa ESE 20.4 mph /  32.8 km/h 20.4 mph /  32.8 km/h 43 % 0.0 in /  0 mm
14:46 29.0 °F /  -1.7 °C 14.8 °F /  -9.6 °C 1014.8 in /  34361.1 hPa ESE 11.1 mph /  17.9 km/h 11.1 mph /  17.9 km/h 42 % 0.0 in /  0 mm
14:51 29.3 °F /  -1.5 °C 15.1 °F /  -9.4 °C 1014.8 in /  34361.1 hPa SE 17.2 mph /  27.7 km/h 17.2 mph /  27.7 km/h 42 % 0.0 in /  0 mm
14:56 28.9 °F /  -1.7 °C 15.1 °F /  -9.4 °C 1014.8 in /  34361.1 hPa East 16.7 mph /  26.9 km/h 16.7 mph /  26.9 km/h 43 % 0.0 in /  0 mm
15:01 29.1 °F /  -1.6 °C 14.9 °F /  -9.5 °C 1014.8 in /  34361.1 hPa ESE 14.8 mph /  23.8 km/h 14.8 mph /  23.8 km/h 42 % 0.0 in /  0 mm
15:06 28.8 °F /  -1.8 °C 15.0 °F /  -9.4 °C 1014.8 in /  34361.1 hPa East 20.4 mph /  32.8 km/h 20.4 mph /  32.8 km/h 43 % 0.0 in /  0 mm
15:11 29.0 °F /  -1.7 °C 14.8 °F /  -9.6 °C 1014.8 in /  34361.1 hPa ENE 16.7 mph /  26.9 km/h 16.7 mph /  26.9 km/h 42 % 0.0 in /  0 mm
15:16 29.0 °F /  -1.7 °C 14.8 °F /  -9.6 °C 1014.8 in /  34361.1 hPa ENE 8.7 mph /  14 km/h 8.7 mph /  14 km/h 42 % 0.0 in /  0 mm
15:21 29.3 °F /  -1.5 °C 15.1 °F /  -9.4 °C 1014.8 in /  34361.1 hPa ESE 20.4 mph /  32.8 km/h 20.4 mph /  32.8 km/h 42 % 0.0 in /  0 mm
15:26 28.9 °F /  -1.7 °C 15.1 °F /  -9.4 °C 1014.8 in /  34361.1 hPa ESE 18.5 mph /  29.8 km/h 18.5 mph /  29.8 km/h 43 % 0.0 in /  0 mm
15:31 28.8 °F /  -1.8 °C 15.0 °F /  -9.4 °C 1014.8 in /  34361.1 hPa ESE 16.1 mph /  25.9 km/h 16.1 mph /  25.9 km/h 43 % 0.0 in /  0 mm
15:36 28.9 °F /  -1.7 °C 15.1 °F /  -9.4 °C 1014.8 in /  34361.1 hPa ESE 13.0 mph /  20.9 km/h 13.0 mph /  20.9 km/h 43 % 0.0 in /  0 mm
15:41 29.2 °F /  -1.6 °C 14.6 °F /  -9.7 °C 1014.8 in /  34361.1 hPa ESE 14.0 mph /  22.5 km/h 14.0 mph /  22.5 km/h 41 % 0.0 in /  0 mm
15:46 28.7 °F /  -1.8 °C 14.5 °F /  -9.7 °C 1014.8 in /  34361.1 hPa South 16.7 mph /  26.9 km/h 16.7 mph /  26.9 km/h 42 % 0.0 in /  0 mm
15:51 29.2 °F /  -1.6 °C 14.6 °F /  -9.7 °C 1014.8 in /  34361.1 hPa ESE 12.2 mph /  19.6 km/h 12.2 mph /  19.6 km/h 41 % 0.0 in /  0 mm
15:57 29.0 °F /  -1.7 °C 14.4 °F /  -9.8 °C 1014.8 in /  34361.1 hPa ESE 16.7 mph /  26.9 km/h 16.7 mph /  26.9 km/h 41 % 0.0 in /  0 mm
16:02 29.1 °F /  -1.6 °C 14.5 °F /  -9.7 °C 1014.8 in /  34361.1 hPa ENE 13.0 mph /  20.9 km/h 13.0 mph /  20.9 km/h 41 % 0.0 in /  0 mm
16:07 29.2 °F /  -1.6 °C 14.2 °F /  -9.9 °C 1014.8 in /  34361.1 hPa NE 16.4 mph /  26.4 km/h 16.4 mph /  26.4 km/h 40 % 0.0 in /  0 mm
16:12 28.8 °F /  -1.8 °C 14.2 °F /  -9.9 °C 1014.8 in /  34361.1 hPa ESE 14.8 mph /  23.8 km/h 14.8 mph /  23.8 km/h 41 % 0.0 in /  0 mm
16:17 29.1 °F /  -1.6 °C 14.1 °F /  -9.9 °C 1014.8 in /  34361.1 hPa ESE 14.8 mph /  23.8 km/h 14.8 mph /  23.8 km/h 40 % 0.0 in /  0 mm
16:22 29.2 °F /  -1.6 °C 13.8 °F /  -10.1 °C 1014.8 in /  34361.1 hPa East 9.3 mph /  15 km/h 9.3 mph /  15 km/h 39 % 0.0 in /  0 mm
16:27 28.7 °F /  -1.8 °C 13.8 °F /  -10.1 °C 1014.8 in /  34361.1 hPa ESE 9.3 mph /  15 km/h 9.3 mph /  15 km/h 40 % 0.0 in /  0 mm
16:32 29.0 °F /  -1.7 °C 13.2 °F /  -10.4 °C 1014.8 in /  34361.1 hPa ESE 18.5 mph /  29.8 km/h 18.5 mph /  29.8 km/h 38 % 0.0 in /  0 mm
16:37 29.0 °F /  -1.7 °C 13.2 °F /  -10.4 °C 1014.8 in /  34361.1 hPa ESE 13.0 mph /  20.9 km/h 13.0 mph /  20.9 km/h 38 % 0.0 in /  0 mm
16:42 29.2 °F /  -1.6 °C 13.4 °F /  -10.3 °C 1014.8 in /  34361.1 hPa ESE 8.7 mph /  14 km/h 8.7 mph /  14 km/h 38 % 0.0 in /  0 mm
16:47 29.1 °F /  -1.6 °C 13.3 °F /  -10.4 °C 1014.8 in /  34361.1 hPa SSE 16.7 mph /  26.9 km/h 16.7 mph /  26.9 km/h 38 % 0.0 in /  0 mm
16:52 29.0 °F /  -1.7 °C 13.2 °F /  -10.4 °C 1014.8 in /  34361.1 hPa South 18.5 mph /  29.8 km/h 18.5 mph /  29.8 km/h 38 % 0.0 in /  0 mm
16:57 29.2 °F /  -1.6 °C 13.4 °F /  -10.3 °C 1014.8 in /  34361.1 hPa NNE 11.1 mph /  17.9 km/h 11.1 mph /  17.9 km/h 38 % 0.0 in /  0 mm
17:02 29.0 °F /  -1.7 °C 13.2 °F /  -10.4 °C 1014.8 in /  34361.1 hPa ESE 14.8 mph /  23.8 km/h 14.8 mph /  23.8 km/h 38 % 0.0 in /  0 mm
17:07 29.0 °F /  -1.7 °C 13.2 °F /  -10.4 °C 1014.8 in /  34361.1 hPa SE 9.3 mph /  15 km/h 9.7 mph /  15.6 km/h 38 % 0.0 in /  0 mm
17:12 28.9 °F /  -1.7 °C 13.6 °F /  -10.2 °C 1014.8 in /  34361.1 hPa SE 9.3 mph /  15 km/h 9.3 mph /  15 km/h 39 % 0.0 in /  0 mm
17:17 28.9 °F /  -1.7 °C 13.6 °F /  -10.2 °C 1014.8 in /  34361.1 hPa East 11.1 mph /  17.9 km/h 11.1 mph /  17.9 km/h 39 % 0.0 in /  0 mm
17:22 29.0 °F /  -1.7 °C 13.2 °F /  -10.4 °C 1014.8 in /  34361.1 hPa ENE 13.7 mph /  22 km/h 13.7 mph /  22 km/h 38 % 0.0 in /  0 mm
17:23 28.8 °F /  -1.8 °C 13.4 °F /  -10.3 °C 1014.8 in /  34361.1 hPa ESE 13.0 mph /  20.9 km/h 13.0 mph /  20.9 km/h 39 % 0.0 in /  0 mm
17:28 28.4 °F /  -2 °C 13.1 °F /  -10.5 °C 1013.8 in /  34327.3 hPa ESE 20.4 mph /  32.8 km/h 20.4 mph /  32.8 km/h 39 % 0.0 in /  0 mm
17:33 28.4 °F /  -2 °C 13.1 °F /  -10.5 °C 1013.8 in /  34327.3 hPa ESE 14.8 mph /  23.8 km/h 14.8 mph /  23.8 km/h 39 % 0.0 in /  0 mm
17:38 28.8 °F /  -1.8 °C 13.4 °F /  -10.3 °C 1013.8 in /  34327.3 hPa ESE 11.1 mph /  17.9 km/h 11.1 mph /  17.9 km/h 39 % 0.0 in /  0 mm
17:43 28.7 °F /  -1.8 °C 13.4 °F /  -10.3 °C 1013.8 in /  34327.3 hPa ESE 18.5 mph /  29.8 km/h 18.5 mph /  29.8 km/h 39 % 0.0 in /  0 mm
17:44 28.5 °F /  -1.9 °C 13.2 °F /  -10.4 °C 1013.8 in /  34327.3 hPa ESE 19.0 mph /  30.6 km/h 19.0 mph /  30.6 km/h 39 % 0.0 in /  0 mm
17:49 28.1 °F /  -2.2 °C 13.2 °F /  -10.4 °C 1013.8 in /  34327.3 hPa ESE 16.9 mph /  27.2 km/h 16.9 mph /  27.2 km/h 40 % 0.0 in /  0 mm
17:54 28.2 °F /  -2.1 °C 13.7 °F /  -10.2 °C 1013.8 in /  34327.3 hPa ESE 13.7 mph /  22 km/h 13.7 mph /  22 km/h 41 % 0.0 in /  0 mm
17:59 28.3 °F /  -2.1 °C 13.8 °F /  -10.1 °C 1013.8 in /  34327.3 hPa East 13.0 mph /  20.9 km/h 13.0 mph /  20.9 km/h 41 % 0.0 in /  0 mm
18:04 28.0 °F /  -2.2 °C 13.5 °F /  -10.3 °C 1013.8 in /  34327.3 hPa ESE 16.7 mph /  26.9 km/h 16.7 mph /  26.9 km/h 41 % 0.0 in /  0 mm
18:09 28.1 °F /  -2.2 °C 13.6 °F /  -10.2 °C 1013.8 in /  34327.3 hPa ENE 13.0 mph /  20.9 km/h 13.0 mph /  20.9 km/h 41 % 0.0 in /  0 mm
18:14 28.3 °F /  -2.1 °C 14.2 °F /  -9.9 °C 1013.8 in /  34327.3 hPa SSE 13.0 mph /  20.9 km/h 13.0 mph /  20.9 km/h 42 % 0.0 in /  0 mm
18:19 27.9 °F /  -2.3 °C 13.8 °F /  -10.1 °C 1013.8 in /  34327.3 hPa East 20.4 mph /  32.8 km/h 20.4 mph /  32.8 km/h 42 % 0.0 in /  0 mm
18:24 27.6 °F /  -2.4 °C 13.2 °F /  -10.4 °C 1013.8 in /  34327.3 hPa SE 18.5 mph /  29.8 km/h 18.5 mph /  29.8 km/h 41 % 0.0 in /  0 mm
18:29 27.7 °F /  -2.4 °C 14.0 °F /  -10 °C 1013.8 in /  34327.3 hPa ESE 14.8 mph /  23.8 km/h 14.8 mph /  23.8 km/h 43 % 0.0 in /  0 mm
18:34 27.7 °F /  -2.4 °C 13.6 °F /  -10.2 °C 1013.8 in /  34327.3 hPa ESE 16.7 mph /  26.9 km/h 16.7 mph /  26.9 km/h 42 % 0.0 in /  0 mm
18:35 27.7 °F /  -2.4 °C 13.6 °F /  -10.2 °C 1013.8 in /  34327.3 hPa NNE 16.7 mph /  26.9 km/h 16.7 mph /  26.9 km/h 42 % 0.0 in /  0 mm
18:40 27.4 °F /  -2.6 °C 13.7 °F /  -10.2 °C 1013.8 in /  34327.3 hPa ESE 11.1 mph /  17.9 km/h 11.1 mph /  17.9 km/h 43 % 0.0 in /  0 mm
18:45 27.6 °F /  -2.4 °C 14.2 °F /  -9.9 °C 1013.8 in /  34327.3 hPa ESE 9.3 mph /  15 km/h 9.5 mph /  15.3 km/h 44 % 0.0 in /  0 mm
18:50 27.4 °F /  -2.6 °C 14.1 °F /  -9.9 °C 1013.8 in /  34327.3 hPa East 11.1 mph /  17.9 km/h 11.1 mph /  17.9 km/h 44 % 0.0 in /  0 mm
18:55 27.4 °F /  -2.6 °C 14.1 °F /  -9.9 °C 1013.8 in /  34327.3 hPa ESE 13.0 mph /  20.9 km/h 13.0 mph /  20.9 km/h 44 % 0.0 in /  0 mm
19:00 27.1 °F /  -2.7 °C 13.8 °F /  -10.1 °C 1013.8 in /  34327.3 hPa ESE 13.0 mph /  20.9 km/h 13.0 mph /  20.9 km/h 44 % 0.0 in /  0 mm
19:05 27.1 °F /  -2.7 °C 14.2 °F /  -9.9 °C 1013.8 in /  34327.3 hPa ESE 14.8 mph /  23.8 km/h 14.8 mph /  23.8 km/h 45 % 0.0 in /  0 mm
19:10 27.0 °F /  -2.8 °C 14.1 °F /  -9.9 °C 1012.8 in /  34293.4 hPa ESE 13.0 mph /  20.9 km/h 13.0 mph /  20.9 km/h 45 % 0.0 in /  0 mm
19:15 27.0 °F /  -2.8 °C 14.1 °F /  -9.9 °C 1012.8 in /  34293.4 hPa ESE 13.0 mph /  20.9 km/h 13.0 mph /  20.9 km/h 45 % 0.0 in /  0 mm
19:20 27.0 °F /  -2.8 °C 14.4 °F /  -9.8 °C 1012.8 in /  34293.4 hPa ESE 9.3 mph /  15 km/h 9.3 mph /  15 km/h 46 % 0.0 in /  0 mm
19:25 26.8 °F /  -2.9 °C 14.6 °F /  -9.7 °C 1013.8 in /  34327.3 hPa ESE 11.1 mph /  17.9 km/h 11.1 mph /  17.9 km/h 47 % 0.0 in /  0 mm
19:30 26.7 °F /  -2.9 °C 14.8 °F /  -9.6 °C 1013.8 in /  34327.3 hPa East 13.0 mph /  20.9 km/h 13.0 mph /  20.9 km/h 48 % 0.0 in /  0 mm
19:35 26.6 °F /  -3 °C 14.7 °F /  -9.6 °C 1013.8 in /  34327.3 hPa ESE 17.2 mph /  27.7 km/h 17.2 mph /  27.7 km/h 48 % 0.0 in /  0 mm
19:40 26.5 °F /  -3.1 °C 14.9 °F /  -9.5 °C 1013.8 in /  34327.3 hPa ENE 13.0 mph /  20.9 km/h 13.0 mph /  20.9 km/h 49 % 0.0 in /  0 mm
19:45 26.3 °F /  -3.2 °C 14.7 °F /  -9.6 °C 1013.8 in /  34327.3 hPa ESE 13.0 mph /  20.9 km/h 13.0 mph /  20.9 km/h 49 % 0.0 in /  0 mm
19:50 26.2 °F /  -3.2 °C 14.9 °F /  -9.5 °C 1013.8 in /  34327.3 hPa ESE 16.7 mph /  26.9 km/h 16.7 mph /  26.9 km/h 50 % 0.0 in /  0 mm
19:55 26.0 °F /  -3.3 °C 14.8 °F /  -9.6 °C 1013.8 in /  34327.3 hPa ENE 11.1 mph /  17.9 km/h 11.1 mph /  17.9 km/h 50 % 0.0 in /  0 mm
20:00 26.1 °F /  -3.3 °C 15.2 °F /  -9.3 °C 1013.8 in /  34327.3 hPa ESE 13.0 mph /  20.9 km/h 13.0 mph /  20.9 km/h 51 % 0.0 in /  0 mm
20:05 25.9 °F /  -3.4 °C 15.0 °F /  -9.4 °C 1013.8 in /  34327.3 hPa ENE 14.8 mph /  23.8 km/h 14.8 mph /  23.8 km/h 51 % 0.0 in /  0 mm
20:10 25.8 °F /  -3.4 °C 15.2 °F /  -9.3 °C 1013.8 in /  34327.3 hPa ESE 11.9 mph /  19.2 km/h 11.9 mph /  19.2 km/h 52 % 0.0 in /  0 mm
20:15 25.6 °F /  -3.6 °C 15.3 °F /  -9.3 °C 1013.8 in /  34327.3 hPa ESE 14.8 mph /  23.8 km/h 14.8 mph /  23.8 km/h 53 % 0.0 in /  0 mm
20:16 25.6 °F /  -3.6 °C 15.3 °F /  -9.3 °C 1013.8 in /  34327.3 hPa East 14.8 mph /  23.8 km/h 14.8 mph /  23.8 km/h 53 % 0.0 in /  0 mm
20:21 25.5 °F /  -3.6 °C 15.5 °F /  -9.2 °C 1013.8 in /  34327.3 hPa East 13.0 mph /  20.9 km/h 13.0 mph /  20.9 km/h 54 % 0.0 in /  0 mm
20:25 20.7 °F /  -6.3 °C 16.3 °F /  -8.7 °C 1016.8 in /  34428.8 hPa NW 3.2 mph /  5.1 km/h 3.2 mph /  5.1 km/h 76 % 0.0 in /  0 mm
20:26 25.5 °F /  -3.6 °C 15.5 °F /  -9.2 °C 1014.8 in /  34361.1 hPa ENE 9.3 mph /  15 km/h 9.3 mph /  15 km/h 54 % 0.0 in /  0 mm
20:31 25.4 °F /  -3.7 °C 15.4 °F /  -9.2 °C 1014.8 in /  34361.1 hPa ENE 11.1 mph /  17.9 km/h 11.1 mph /  17.9 km/h 54 % 0.0 in /  0 mm
20:35 20.7 °F /  -6.3 °C 16.5 °F /  -8.6 °C 1017.8 in /  34462.7 hPa WNW 1.6 mph /  2.6 km/h 3.2 mph /  5.1 km/h 77 % 0.0 in /  0 mm
20:36 25.3 °F /  -3.7 °C 15.6 °F /  -9.1 °C 1014.8 in /  34361.1 hPa East 13.0 mph /  20.9 km/h 13.0 mph /  20.9 km/h 55 % 0.0 in /  0 mm
20:41 25.1 °F /  -3.8 °C 15.4 °F /  -9.2 °C 1014.8 in /  34361.1 hPa ESE 9.3 mph /  15 km/h 9.5 mph /  15.3 km/h 55 % 0.0 in /  0 mm
20:45 20.6 °F /  -6.3 °C 16.6 °F /  -8.6 °C 1017.8 in /  34462.7 hPa Calm   1.6 mph /  2.6 km/h 78 % 0.0 in /  0 mm
20:46 25.0 °F /  -3.9 °C 15.6 °F /  -9.1 °C 1014.8 in /  34361.1 hPa ESE 8.7 mph /  14 km/h 8.7 mph /  14 km/h 56 % 0.0 in /  0 mm
20:51 24.8 °F /  -4 °C 16.0 °F /  -8.9 °C 1014.8 in /  34361.1 hPa ENE 13.0 mph /  20.9 km/h 13.0 mph /  20.9 km/h 58 % 0.0 in /  0 mm
20:55 20.6 °F /  -6.3 °C 16.6 °F /  -8.6 °C 1017.8 in /  34462.7 hPa Calm   3.2 mph /  5.1 km/h 78 % 0.0 in /  0 mm
20:56 24.6 °F /  -4.1 °C 16.1 °F /  -8.8 °C 1014.8 in /  34361.1 hPa SE 13.0 mph /  20.9 km/h 13.0 mph /  20.9 km/h 59 % 0.0 in /  0 mm
21:01 24.4 °F /  -4.2 °C 16.1 °F /  -8.8 °C 1014.8 in /  34361.1 hPa ESE 14.8 mph /  23.8 km/h 14.8 mph /  23.8 km/h 60 % 0.0 in /  0 mm
21:05 20.6 °F /  -6.3 °C 16.6 °F /  -8.6 °C 1016.8 in /  34428.8 hPa Calm   1.6 mph /  2.6 km/h 78 % 0.0 in /  0 mm
21:06 24.3 °F /  -4.3 °C 16.3 °F /  -8.7 °C 1014.8 in /  34361.1 hPa ESE 11.1 mph /  17.9 km/h 11.1 mph /  17.9 km/h 61 % 0.0 in /  0 mm
21:11 24.2 °F /  -4.3 °C 16.4 °F /  -8.7 °C 1014.8 in /  34361.1 hPa ESE 11.1 mph /  17.9 km/h 11.1 mph /  17.9 km/h 62 % 0.0 in /  0 mm
21:15 20.6 °F /  -6.3 °C 16.8 °F /  -8.4 °C 1017.8 in /  34462.7 hPa NNE 1.6 mph /  2.6 km/h 3.2 mph /  5.1 km/h 79 % 0.0 in /  0 mm
21:16 24.0 °F /  -4.4 °C 16.3 °F /  -8.7 °C 1014.8 in /  34361.1 hPa ENE 9.3 mph /  15 km/h 9.3 mph /  15 km/h 62 % 0.0 in /  0 mm
21:21 23.8 °F /  -4.6 °C 16.3 °F /  -8.7 °C 1014.8 in /  34361.1 hPa ENE 11.1 mph /  17.9 km/h 11.1 mph /  17.9 km/h 63 % 0.0 in /  0 mm
21:25 20.5 °F /  -6.4 °C 16.6 °F /  -8.6 °C 1017.8 in /  34462.7 hPa Calm   3.2 mph /  5.1 km/h 78 % 0.0 in /  0 mm
21:26 23.7 °F /  -4.6 °C 16.5 °F /  -8.6 °C 1014.8 in /  34361.1 hPa ESE 11.1 mph /  17.9 km/h 11.1 mph /  17.9 km/h 64 % 0.0 in /  0 mm
21:31 23.6 °F /  -4.7 °C 16.2 °F /  -8.8 °C 1014.8 in /  34361.1 hPa ENE 9.3 mph /  15 km/h 9.3 mph /  15 km/h 63 % 0.0 in /  0 mm
21:35 20.0 °F /  -6.7 °C 16.1 °F /  -8.8 °C 1016.8 in /  34428.8 hPa Calm   1.6 mph /  2.6 km/h 78 % 0.0 in /  0 mm
21:36 23.5 °F /  -4.7 °C 16.3 °F /  -8.7 °C 1014.8 in /  34361.1 hPa ENE 9.3 mph /  15 km/h 9.3 mph /  15 km/h 64 % 0.0 in /  0 mm
21:41 23.3 °F /  -4.8 °C 16.1 °F /  -8.8 °C 1014.8 in /  34361.1 hPa East 7.4 mph /  11.9 km/h 7.4 mph /  11.9 km/h 64 % 0.0 in /  0 mm
21:45 19.9 °F /  -6.7 °C 16.2 °F /  -8.8 °C 1016.8 in /  34428.8 hPa Calm   1.6 mph /  2.6 km/h 79 % 0.0 in /  0 mm
21:46 23.2 °F /  -4.9 °C 16.3 °F /  -8.7 °C 1014.8 in /  34361.1 hPa NNE 9.3 mph /  15 km/h 9.3 mph /  15 km/h 65 % 0.0 in /  0 mm
21:51 23.1 °F /  -4.9 °C 16.2 °F /  -8.8 °C 1014.8 in /  34361.1 hPa East 3.7 mph /  6 km/h 3.7 mph /  6 km/h 65 % 0.0 in /  0 mm
21:55 19.9 °F /  -6.7 °C 16.3 °F /  -8.7 °C 1016.8 in /  34428.8 hPa SE 1.6 mph /  2.6 km/h 3.2 mph /  5.1 km/h 80 % 0.0 in /  0 mm
21:56 23.1 °F /  -4.9 °C 16.6 °F /  -8.6 °C 1014.8 in /  34361.1 hPa ESE 9.3 mph /  15 km/h 9.3 mph /  15 km/h 67 % 0.0 in /  0 mm
22:01 23.0 °F /  -5 °C 16.6 °F /  -8.6 °C 1014.8 in /  34361.1 hPa NE 11.1 mph /  17.9 km/h 11.1 mph /  17.9 km/h 67 % 0.0 in /  0 mm
22:05 19.8 °F /  -6.8 °C 16.2 °F /  -8.8 °C 1015.8 in /  34395 hPa ENE 1.6 mph /  2.6 km/h 3.2 mph /  5.1 km/h 80 % 0.0 in /  0 mm
22:06 23.0 °F /  -5 °C 16.8 °F /  -8.4 °C 1014.8 in /  34361.1 hPa East 9.3 mph /  15 km/h 9.3 mph /  15 km/h 68 % 0.0 in /  0 mm
22:11 22.9 °F /  -5.1 °C 16.7 °F /  -8.5 °C 1015.8 in /  34395 hPa ESE 9.3 mph /  15 km/h 9.3 mph /  15 km/h 68 % 0.0 in /  0 mm
22:15 19.7 °F /  -6.8 °C 15.9 °F /  -8.9 °C 1015.8 in /  34395 hPa NE 3.2 mph /  5.1 km/h 3.2 mph /  5.1 km/h 79 % 0.0 in /  0 mm
22:16 22.8 °F /  -5.1 °C 16.6 °F /  -8.6 °C 1015.8 in /  34395 hPa East 9.3 mph /  15 km/h 9.3 mph /  15 km/h 68 % 0.0 in /  0 mm
22:21 22.7 °F /  -5.2 °C 16.5 °F /  -8.6 °C 1015.8 in /  34395 hPa ESE 5.6 mph /  9 km/h 5.6 mph /  9 km/h 68 % 0.0 in /  0 mm
22:25 19.5 °F /  -6.9 °C 15.8 °F /  -9 °C 1015.8 in /  34395 hPa NNW 1.6 mph /  2.6 km/h 3.2 mph /  5.1 km/h 79 % 0.0 in /  0 mm
22:26 22.6 °F /  -5.2 °C 16.4 °F /  -8.7 °C 1015.8 in /  34395 hPa ESE 5.0 mph /  8 km/h 5.0 mph /  8 km/h 68 % 0.0 in /  0 mm
22:31 22.5 °F /  -5.3 °C 16.5 °F /  -8.6 °C 1015.8 in /  34395 hPa ENE 5.6 mph /  9 km/h 5.6 mph /  9 km/h 69 % 0.0 in /  0 mm
22:35 19.5 °F /  -6.9 °C 15.6 °F /  -9.1 °C 1016.8 in /  34428.8 hPa WNW 1.6 mph /  2.6 km/h 1.6 mph /  2.6 km/h 78 % 0.0 in /  0 mm
22:36 22.6 °F /  -5.2 °C 16.8 °F /  -8.4 °C 1015.8 in /  34395 hPa East 11.1 mph /  17.9 km/h 11.1 mph /  17.9 km/h 70 % 0.0 in /  0 mm
22:41 22.5 °F /  -5.3 °C 16.5 °F /  -8.6 °C 1014.8 in /  34361.1 hPa ENE 5.6 mph /  9 km/h 5.6 mph /  9 km/h 69 % 0.0 in /  0 mm
22:45 19.7 °F /  -6.8 °C 15.8 °F /  -9 °C 1015.8 in /  34395 hPa North 1.6 mph /  2.6 km/h 3.2 mph /  5.1 km/h 78 % 0.0 in /  0 mm
22:46 22.4 °F /  -5.3 °C 16.4 °F /  -8.7 °C 1014.8 in /  34361.1 hPa ENE 5.6 mph /  9 km/h 5.6 mph /  9 km/h 69 % 0.0 in /  0 mm
22:51 22.3 °F /  -5.4 °C 16.6 °F /  -8.6 °C 1014.8 in /  34361.1 hPa NE 3.7 mph /  6 km/h 3.7 mph /  6 km/h 70 % 0.0 in /  0 mm
22:55 19.2 °F /  -7.1 °C 15.1 °F /  -9.4 °C 1015.8 in /  34395 hPa WSW 4.8 mph /  7.7 km/h 4.8 mph /  7.7 km/h 77 % 0.0 in /  0 mm
22:56 22.2 °F /  -5.4 °C 16.2 °F /  -8.8 °C 1014.8 in /  34361.1 hPa NNE 3.7 mph /  6 km/h 3.7 mph /  6 km/h 69 % 0.0 in /  0 mm
23:01 22.2 °F /  -5.4 °C 16.4 °F /  -8.7 °C 1014.8 in /  34361.1 hPa East 3.7 mph /  6 km/h 3.9 mph /  6.3 km/h 70 % 0.0 in /  0 mm
23:05 19.1 °F /  -7.2 °C 15.2 °F /  -9.3 °C 1015.8 in /  34395 hPa WSW 1.6 mph /  2.6 km/h 6.4 mph /  10.3 km/h 78 % 0.0 in /  0 mm
23:06 22.1 °F /  -5.5 °C 16.4 °F /  -8.7 °C 1014.8 in /  34361.1 hPa NE 5.6 mph /  9 km/h 5.6 mph /  9 km/h 70 % 0.0 in /  0 mm
23:11 22.0 °F /  -5.6 °C 16.3 °F /  -8.7 °C 1015.8 in /  34395 hPa East 3.7 mph /  6 km/h 3.7 mph /  6 km/h 70 % 0.0 in /  0 mm
23:15 19.2 °F /  -7.1 °C 15.4 °F /  -9.2 °C 1015.8 in /  34395 hPa WSW 1.6 mph /  2.6 km/h 3.2 mph /  5.1 km/h 79 % 0.0 in /  0 mm
23:16 22.0 °F /  -5.6 °C 16.5 °F /  -8.6 °C 1015.8 in /  34395 hPa East 3.7 mph /  6 km/h 3.7 mph /  6 km/h 71 % 0.0 in /  0 mm
23:21 21.9 °F /  -5.6 °C 16.8 °F /  -8.4 °C 1015.8 in /  34395 hPa East 5.0 mph /  8 km/h 5.0 mph /  8 km/h 73 % 0.0 in /  0 mm
23:25 18.9 °F /  -7.3 °C 15.2 °F /  -9.3 °C 1015.8 in /  34395 hPa WSW 1.6 mph /  2.6 km/h 3.2 mph /  5.1 km/h 79 % 0.0 in /  0 mm
23:26 21.9 °F /  -5.6 °C 17.1 °F /  -8.3 °C 1015.8 in /  34395 hPa East 5.8 mph /  9.3 km/h 5.8 mph /  9.3 km/h 74 % 0.0 in /  0 mm
23:31 21.8 °F /  -5.7 °C 16.9 °F /  -8.4 °C 1015.8 in /  34395 hPa ENE 5.6 mph /  9 km/h 5.6 mph /  9 km/h 74 % 0.0 in /  0 mm
23:35 18.9 °F /  -7.3 °C 15.6 °F /  -9.1 °C 1015.8 in /  34395 hPa Calm   1.6 mph /  2.6 km/h 81 % 0.0 in /  0 mm
23:36 21.7 °F /  -5.7 °C 16.9 °F /  -8.4 °C 1015.8 in /  34395 hPa NE 3.7 mph /  6 km/h 3.7 mph /  6 km/h 74 % 0.0 in /  0 mm
23:41 21.7 °F /  -5.7 °C 16.9 °F /  -8.4 °C 1015.8 in /  34395 hPa NNE 3.7 mph /  6 km/h 3.7 mph /  6 km/h 74 % 0.0 in /  0 mm
23:45 19.0 °F /  -7.2 °C 15.1 °F /  -9.4 °C 1015.8 in /  34395 hPa NE 1.6 mph /  2.6 km/h 3.2 mph /  5.1 km/h 78 % 0.0 in /  0 mm
23:46 21.7 °F /  -5.7 °C 16.9 °F /  -8.4 °C 1015.8 in /  34395 hPa NE 2.6 mph /  4.2 km/h 2.6 mph /  4.2 km/h 74 % 0.0 in /  0 mm
23:51 21.6 °F /  -5.8 °C 17.0 °F /  -8.3 °C 1015.8 in /  34395 hPa East 3.7 mph /  6 km/h 3.7 mph /  6 km/h 75 % 0.0 in /  0 mm
23:55 18.8 °F /  -7.3 °C 14.9 °F /  -9.5 °C 1015.8 in /  34395 hPa NE 4.8 mph /  7.7 km/h 6.4 mph /  10.3 km/h 78 % 0.0 in /  0 mm
23:56 21.5 °F /  -5.8 °C 16.9 °F /  -8.4 °C 1015.8 in /  34395 hPa Calm     75 % 0.0 in /  0 mm
Meteo Sesrovires
Elogis d' Weather Underground - 3.75 mb

Guio original per  Jim McMurry - jmcmurry@mwt.net Adaptat per a la plantilla per  Wim van der Kuil - Leuven-Template.eu

Trobareu la nostra informacio del temps tambe a:

Weather Underground

AWEKAS